Time;durP1;ratioP1;P1;durP2;ratioP2;P2;SDS_P1;SDS_P2;PMS_P1;PMS_P2;Temp;Humidity;BMP_temperature;BMP_pressure;BME280_temperature;BME280_humidity;BME280_pressure;Samples;Min_cycle;Max_cycle;Signal;HPM_P1;HPM_P2
2024/01/06 00:02:09;;;;;;;6.00;5.50;;;13.10;69.70;;;;;;4166851;28;20499;-38
2024/01/06 00:04:50;;;;;;;6.57;5.97;;;13.10;70.20;;;;;;4172231;28;20055;-38
2024/01/06 00:07:31;;;;;;;5.82;5.32;;;13.10;70.40;;;;;;4188965;28;20052;-38
2024/01/06 00:10:12;;;;;;;6.07;5.47;;;13.10;69.30;;;;;;4189132;28;20059;-37
2024/01/06 00:12:55;;;;;;;5.85;5.35;;;13.10;69.50;;;;;;4177153;28;20047;-37
2024/01/06 00:15:37;;;;;;;5.70;5.20;;;13.10;69.30;;;;;;4188801;28;20101;-37
2024/01/06 00:18:19;;;;;;;6.07;5.57;;;13.00;70.30;;;;;;4171754;28;20130;-38
2024/01/06 00:21:00;;;;;;;5.53;5.03;;;13.00;70.20;;;;;;4171613;28;20067;-39
2024/01/06 00:23:41;;;;;;;5.78;5.28;;;13.00;69.10;;;;;;4188036;28;20055;-49
2024/01/06 00:26:22;;;;;;;5.30;4.80;;;13.00;69.30;;;;;;4189091;28;20607;-51
2024/01/06 00:29:04;;;;;;;5.60;4.90;;;13.00;70.90;;;;;;4188410;28;20093;-49
2024/01/06 00:31:45;;;;;;;5.93;5.47;;;13.00;71.40;;;;;;4166753;28;20443;-53
2024/01/06 00:34:27;;;;;;;5.60;5.20;;;13.00;71.50;;;;;;4172572;28;20059;-51
2024/01/06 00:37:09;;;;;;;5.75;5.28;;;13.00;70.90;;;;;;4172273;28;20060;-49
2024/01/06 00:39:50;;;;;;;5.78;5.28;;;13.00;70.30;;;;;;4186956;28;20097;-48
2024/01/06 00:42:31;;;;;;;5.83;5.40;;;13.00;71.30;;;;;;4188270;28;20794;-49
2024/01/06 00:45:12;;;;;;;5.90;5.50;;;13.00;71.70;;;;;;4183463;28;20547;-51
2024/01/06 00:47:53;;;;;;;5.47;4.97;;;13.00;72.80;;;;;;4171530;28;20094;-51
2024/01/06 00:50:35;;;;;;;5.70;5.28;;;13.10;73.00;;;;;;4171995;28;20178;-50
2024/01/06 00:53:16;;;;;;;6.13;5.13;;;13.20;69.00;;;;;;4156679;28;20055;-50
2024/01/06 00:55:57;;;;;;;4.90;4.40;;;13.20;68.90;;;;;;4154690;28;20086;-45
2024/01/06 00:58:38;;;;;;;5.28;4.88;;;13.20;68.10;;;;;;4153463;28;20053;-52
2024/01/06 01:01:19;;;;;;;5.80;5.30;;;13.20;69.00;;;;;;4159007;28;20056;-50
2024/01/06 01:04:00;;;;;;;5.72;5.22;;;13.30;71.70;;;;;;4170463;28;20303;-48
2024/01/06 01:06:42;;;;;;;4.88;4.47;;;13.50;72.60;;;;;;4171435;28;20055;-52
2024/01/06 01:09:23;;;;;;;5.53;5.00;;;13.70;72.20;;;;;;4188102;28;20051;-49
2024/01/06 01:12:04;;;;;;;5.85;5.35;;;13.90;72.20;;;;;;4181105;28;20390;-46
2024/01/06 01:14:45;;;;;;;5.25;4.70;;;14.00;72.80;;;;;;4170344;28;20052;-49
2024/01/06 01:17:26;;;;;;;5.13;4.73;;;14.10;72.00;;;;;;4186292;28;20079;-47
2024/01/06 01:20:08;;;;;;;5.47;4.97;;;14.20;71.00;;;;;;4187284;28;20344;-47
2024/01/06 01:22:50;;;;;;;5.00;4.50;;;14.20;71.20;;;;;;4171210;28;20048;-47
2024/01/06 01:25:31;;;;;;;6.32;4.85;;;14.30;70.20;;;;;;4170535;28;20515;-52
2024/01/06 01:28:13;;;;;;;5.10;4.78;;;14.30;70.40;;;;;;4170785;28;20202;-51
2024/01/06 01:30:54;;;;;;;5.32;4.82;;;14.30;69.90;;;;;;4160151;28;20052;-50
2024/01/06 01:33:35;;;;;;;4.80;4.50;;;14.30;69.60;;;;;;4180286;28;20051;-49
2024/01/06 01:36:18;;;;;;;5.72;4.70;;;14.30;71.70;;;;;;4178300;28;20130;-49
2024/01/06 01:39:00;;;;;;;6.22;5.07;;;14.20;70.70;;;;;;4175334;28;20052;-52
2024/01/06 01:41:41;;;;;;;5.57;5.00;;;14.30;70.80;;;;;;4187075;28;20160;-50
2024/01/06 01:44:22;;;;;;;5.30;4.80;;;14.40;71.40;;;;;;4187240;28;20051;-48
2024/01/06 01:47:05;;;;;;;5.35;4.95;;;14.50;70.60;;;;;;4187436;28;20515;-50
2024/01/06 01:49:47;;;;;;;5.43;5.03;;;14.60;70.30;;;;;;4185827;28;20051;-47
2024/01/06 01:52:28;;;;;;;6.13;4.82;;;14.60;67.10;;;;;;4170280;28;20052;-49
2024/01/06 01:55:11;;;;;;;4.80;4.40;;;14.70;68.50;;;;;;4169478;28;20055;-49
2024/01/06 01:57:52;;;;;;;5.18;4.75;;;14.70;68.40;;;;;;4170337;28;20187;-47
2024/01/06 02:00:33;;;;;;;5.15;4.57;;;14.80;68.40;;;;;;4170596;28;20068;-47
2024/01/06 02:03:14;;;;;;;4.85;4.45;;;14.80;68.80;;;;;;4170780;28;20507;-46
2024/01/06 02:05:56;;;;;;;5.25;4.75;;;14.80;67.90;;;;;;4165470;28;20056;-48
2024/01/06 02:08:37;;;;;;;4.88;4.47;;;14.80;67.00;;;;;;4170995;28;20067;-50
2024/01/06 02:11:19;;;;;;;5.60;5.10;;;14.80;66.60;;;;;;4174871;28;20181;-47
2024/01/06 02:14:00;;;;;;;5.72;4.88;;;14.80;68.00;;;;;;4154057;28;20068;-50
2024/01/06 02:16:41;;;;;;;5.53;5.03;;;14.80;68.20;;;;;;4186213;28;20048;-50
2024/01/06 02:19:22;;;;;;;5.75;5.32;;;14.90;68.30;;;;;;4187316;28;20066;-48
2024/01/06 02:22:05;;;;;;;4.82;4.40;;;14.90;67.00;;;;;;4186238;28;20511;-49
2024/01/06 02:24:46;;;;;;;6.38;4.95;;;14.80;68.00;;;;;;4158713;28;20053;-48
2024/01/06 02:27:27;;;;;;;5.75;5.25;;;14.80;67.00;;;;;;4169820;28;20056;-48
2024/01/06 02:30:10;;;;;;;5.70;5.20;;;14.80;68.10;;;;;;4172454;28;20502;-48
2024/01/06 02:32:51;;;;;;;5.82;5.25;;;14.90;68.30;;;;;;4170328;28;20048;-51
2024/01/06 02:35:32;;;;;;;5.97;5.28;;;14.90;67.80;;;;;;4177219;28;20051;-50
2024/01/06 02:38:14;;;;;;;5.35;4.60;;;14.90;68.80;;;;;;4197425;28;20221;-53
2024/01/06 02:40:55;;;;;;;6.22;5.72;;;14.90;67.80;;;;;;4182180;28;20164;-49
2024/01/06 02:43:36;;;;;;;5.53;5.03;;;15.00;65.30;;;;;;4170203;28;20051;-51
2024/01/06 02:46:18;;;;;;;5.50;4.97;;;15.00;67.20;;;;;;4172431;28;20055;-51
2024/01/06 02:48:59;;;;;;;5.97;5.47;;;15.00;66.00;;;;;;4186338;28;20609;-52
2024/01/06 02:51:40;;;;;;;5.38;4.85;;;15.10;66.60;;;;;;4177227;28;20505;-49
2024/01/06 02:54:22;;;;;;;5.57;4.90;;;15.10;64.80;;;;;;4186307;28;20059;-46
2024/01/06 02:57:03;;;;;;;5.75;5.25;;;15.10;65.10;;;;;;4170741;28;20071;-51
2024/01/06 02:59:44;;;;;;;6.07;5.32;;;15.10;64.10;;;;;;4170322;28;20607;-50
2024/01/06 03:02:25;;;;;;;6.03;5.43;;;15.00;64.90;;;;;;4182336;28;20194;-48
2024/01/06 03:05:07;;;;;;;5.35;4.70;;;15.00;66.30;;;;;;4177137;28;20049;-48
2024/01/06 03:07:47;;;;;;;6.03;5.43;;;14.90;65.80;;;;;;4169900;28;20064;-50
2024/01/06 03:10:30;;;;;;;5.88;5.32;;;14.90;66.30;;;;;;4170417;28;20733;-48
2024/01/06 03:13:11;;;;;;;5.72;5.00;;;14.80;66.60;;;;;;4169887;28;20530;-48
2024/01/06 03:15:52;;;;;;;5.38;4.88;;;14.80;66.60;;;;;;4185018;28;20083;-48
2024/01/06 03:18:33;;;;;;;5.85;4.90;;;14.70;66.20;;;;;;4186878;28;20538;-49
2024/01/06 03:21:18;;;;;;;;;;;14.70;67.10;;;;;;4185512;28;20427;-49
2024/01/06 03:23:59;;;;;;;5.10;4.70;;;14.70;67.00;;;;;;4189031;28;19947;-49
2024/01/06 03:26:42;;;;;;;6.13;4.55;;;14.60;66.30;;;;;;4189578;28;20415;-47
2024/01/06 03:29:22;;;;;;;6.55;5.13;;;14.70;66.20;;;;;;4188971;28;20063;-50
2024/01/06 03:32:04;;;;;;;5.43;4.93;;;14.70;66.90;;;;;;4187382;28;20126;-50
2024/01/06 03:34:44;;;;;;;5.07;4.60;;;14.80;66.30;;;;;;4179256;28;20055;-52
2024/01/06 03:37:26;;;;;;;5.65;5.07;;;14.80;64.60;;;;;;4159997;28;20080;-49
2024/01/06 03:40:08;;;;;;;8.63;6.20;;;14.90;65.20;;;;;;4168624;28;20067;-49
2024/01/06 03:42:50;;;;;;;5.88;5.28;;;14.90;65.20;;;;;;4170244;28;20299;-48
2024/01/06 03:45:31;;;;;;;5.85;5.22;;;14.90;65.40;;;;;;4180580;28;20641;-47
2024/01/06 03:48:12;;;;;;;5.93;5.43;;;14.90;65.60;;;;;;4188641;28;20487;-46
2024/01/06 03:50:53;;;;;;;7.20;6.47;;;14.90;66.70;;;;;;4188732;28;20056;-49
2024/01/06 03:53:34;;;;;;;6.53;5.30;;;14.90;67.50;;;;;;4171887;28;20055;-47
2024/01/06 03:56:15;;;;;;;6.05;5.45;;;15.00;66.80;;;;;;4188949;28;20052;-47
2024/01/06 03:58:58;;;;;;;5.72;5.18;;;15.20;66.10;;;;;;4188845;28;20067;-48
2024/01/06 04:01:38;;;;;;;7.15;4.82;;;15.20;66.50;;;;;;4174728;28;20052;-47
2024/01/06 04:04:19;;;;;;;5.28;4.88;;;15.20;65.80;;;;;;4185841;28;20206;-46
2024/01/06 04:07:01;;;;;;;4.43;4.03;;;15.30;64.70;;;;;;4172442;28;20086;-50
2024/01/06 04:09:43;;;;;;;6.20;5.57;;;15.30;63.90;;;;;;4188938;28;20380;-38
2024/01/06 04:12:24;;;;;;;4.50;4.10;;;15.30;63.00;;;;;;4182585;28;20062;-38
2024/01/06 04:15:08;;;;;;;4.28;3.67;;;15.40;63.20;;;;;;4170827;28;20110;-39
2024/01/06 04:17:50;;;;;;;4.75;4.38;;;15.30;64.00;;;;;;4176121;28;20047;-38
2024/01/06 04:20:30;;;;;;;6.75;5.40;;;15.40;63.90;;;;;;4188040;28;20181;-38
2024/01/06 04:23:11;;;;;;;5.00;4.50;;;15.40;63.60;;;;;;4187622;28;20051;-38
2024/01/06 04:25:52;;;;;;;5.60;5.10;;;15.40;62.00;;;;;;4188490;28;20055;-38
2024/01/06 04:28:33;;;;;;;5.32;4.93;;;15.30;63.80;;;;;;4188875;28;20396;-38
2024/01/06 04:31:16;;;;;;;5.40;4.90;;;15.30;64.10;;;;;;4179748;28;20072;-37
2024/01/06 04:33:57;;;;;;;5.15;4.75;;;15.30;63.80;;;;;;4187566;28;20059;-38
2024/01/06 04:36:37;;;;;;;7.60;5.22;;;15.30;63.70;;;;;;4171333;28;20052;-38
2024/01/06 04:39:19;;;;;;;5.40;4.95;;;15.40;63.70;;;;;;4171181;28;20060;-38
2024/01/06 04:42:00;;;;;;;5.18;4.75;;;15.40;64.10;;;;;;4178960;28;20055;-38
2024/01/06 04:44:41;;;;;;;5.43;4.93;;;15.40;63.70;;;;;;4188484;28;20056;-38
2024/01/06 04:47:23;;;;;;;6.80;4.85;;;15.30;64.50;;;;;;4187864;28;20067;-38
2024/01/06 04:50:05;;;;;;;5.18;4.68;;;15.20;64.20;;;;;;4186236;28;20102;-37
2024/01/06 04:52:46;;;;;;;6.38;5.28;;;15.20;63.80;;;;;;4187600;28;20098;-37
2024/01/06 04:55:27;;;;;;;6.57;5.68;;;15.20;65.10;;;;;;4188196;28;20182;-38
2024/01/06 04:58:08;;;;;;;6.13;5.35;;;15.20;65.70;;;;;;4188260;28;20059;-38
2024/01/06 05:00:51;;;;;;;5.47;4.97;;;15.20;64.40;;;;;;4188427;28;20086;-38
2024/01/06 05:03:34;;;;;;;6.32;5.63;;;15.20;63.20;;;;;;4187127;28;20446;-38
2024/01/06 05:06:15;;;;;;;5.07;4.68;;;15.20;64.20;;;;;;4178458;28;20063;-38
2024/01/06 05:08:56;;;;;;;5.13;4.63;;;15.10;64.10;;;;;;4187683;28;20593;-38
2024/01/06 05:11:38;;;;;;;5.55;5.05;;;15.00;65.20;;;;;;4175141;28;20047;-38
2024/01/06 05:14:19;;;;;;;5.07;4.57;;;15.00;64.90;;;;;;4186906;28;20400;-38
2024/01/06 05:16:59;;;;;;;5.67;5.17;;;15.00;63.70;;;;;;4187125;28;20067;-38
2024/01/06 05:19:42;;;;;;;5.35;4.95;;;14.90;65.00;;;;;;4184746;28;20613;-51
2024/01/06 05:22:23;;;;;;;5.57;5.05;;;15.00;66.50;;;;;;4164611;28;20056;-48
2024/01/06 05:25:04;;;;;;;;;;;15.00;66.60;;;;;;4171722;28;20056;-49
2024/01/06 05:27:46;;;;;;;5.47;4.97;;;15.10;66.40;;;;;;4171068;28;19986;-48
2024/01/06 05:30:27;;;;;;;5.03;4.50;;;15.20;64.70;;;;;;4172856;28;20507;-47
2024/01/06 05:33:12;;;;;;;4.90;4.50;;;15.20;65.20;;;;;;4170633;28;20059;-50
2024/01/06 05:35:56;;;;;;;4.55;4.15;;;15.20;64.00;;;;;;4175399;28;20404;-47
2024/01/06 05:38:37;;;;;;;5.15;4.57;;;15.20;64.70;;;;;;4169402;28;20072;-51
2024/01/06 05:41:18;;;;;;;5.35;4.85;;;15.10;64.40;;;;;;4171157;28;20077;-50
2024/01/06 05:43:59;;;;;;;4.68;4.28;;;15.10;65.50;;;;;;4170527;28;20052;-53
2024/01/06 05:46:40;;;;;;;5.57;5.07;;;15.20;64.60;;;;;;4170419;28;20515;-49
2024/01/06 05:49:22;;;;;;;4.88;4.47;;;15.20;63.40;;;;;;4172133;28;20064;-50
2024/01/06 05:52:05;;;;;;;7.80;4.43;;;15.30;63.30;;;;;;4177175;28;20059;-47
2024/01/06 05:54:46;;;;;;;4.47;4.07;;;15.40;64.50;;;;;;4187342;28;20075;-48
2024/01/06 05:57:27;;;;;;;5.15;4.30;;;15.50;63.50;;;;;;4187467;28;20568;-49
2024/01/06 06:00:11;;;;;;;5.78;4.82;;;15.60;62.90;;;;;;4187115;28;20087;-53
2024/01/06 06:02:55;;;;;;;5.70;5.18;;;15.60;63.30;;;;;;4185302;28;20407;-47
2024/01/06 06:05:36;;;;;;;5.50;5.07;;;15.60;64.10;;;;;;4171113;28;20086;-47
2024/01/06 06:08:18;;;;;;;4.32;3.92;;;15.70;64.60;;;;;;4170940;28;20094;-46
2024/01/06 06:11:04;;;;;;;4.93;4.50;;;15.70;64.70;;;;;;4170621;28;20531;-49
2024/01/06 06:13:45;;;;;;;5.97;4.55;;;15.60;64.20;;;;;;4180062;28;20052;-47
2024/01/06 06:16:27;;;;;;;5.70;5.05;;;15.70;64.40;;;;;;4187063;28;20511;-51
2024/01/06 06:19:08;;;;;;;6.05;4.72;;;15.80;64.60;;;;;;4172456;28;20404;-46
2024/01/06 06:21:49;;;;;;;5.03;4.68;;;15.80;64.10;;;;;;4158266;28;20114;-50
2024/01/06 06:24:32;;;;;;;5.18;4.68;;;15.80;63.80;;;;;;4170677;28;20503;-46
2024/01/06 06:27:13;;;;;;;5.65;5.15;;;15.90;64.30;;;;;;4187215;28;20101;-46
2024/01/06 06:29:54;;;;;;;7.30;5.28;;;15.90;63.70;;;;;;4186591;28;20178;-47
2024/01/06 06:32:35;;;;;;;5.60;5.13;;;15.90;64.20;;;;;;4186742;28;20163;-50
2024/01/06 06:35:16;;;;;;;5.32;4.82;;;15.90;65.50;;;;;;4187011;28;20052;-47
2024/01/06 06:37:57;;;;;;;4.65;4.35;;;15.80;64.20;;;;;;4170641;28;20052;-50
2024/01/06 06:40:40;;;;;;;;;;;15.70;64.10;;;;;;4171325;28;20573;-48
2024/01/06 06:43:20;;;;;;;;;;;15.60;64.60;;;;;;4186765;28;19927;-46
2024/01/06 06:46:02;;;;;;;5.32;4.82;;;15.50;65.90;;;;;;4186433;28;19947;-49
2024/01/06 06:48:43;;;;;;;5.55;5.05;;;15.40;66.50;;;;;;4164913;28;20048;-52
2024/01/06 06:51:26;;;;;;;6.07;5.45;;;15.40;65.90;;;;;;4170147;28;20048;-50
2024/01/06 06:54:08;;;;;;;5.50;5.00;;;15.30;66.40;;;;;;4186973;28;20098;-51
2024/01/06 06:56:50;;;;;;;6.85;5.43;;;15.30;66.30;;;;;;4184356;28;20126;-46
2024/01/06 06:59:31;;;;;;;5.97;5.03;;;15.30;66.60;;;;;;4190301;28;20881;-51
2024/01/06 07:02:12;;;;;;;4.93;4.50;;;15.50;65.90;;;;;;4172092;28;20083;-49
2024/01/06 07:04:53;;;;;;;5.78;5.30;;;15.60;65.00;;;;;;4184628;28;20052;-50
2024/01/06 07:07:34;;;;;;;5.47;4.90;;;15.70;64.80;;;;;;4189465;28;20114;-49
2024/01/06 07:10:15;;;;;;;5.53;5.05;;;15.80;64.30;;;;;;4177996;28;20059;-53
2024/01/06 07:12:57;;;;;;;5.28;4.78;;;15.90;62.90;;;;;;4189184;28;20067;-50
2024/01/06 07:15:38;;;;;;;5.75;5.15;;;15.90;63.00;;;;;;4189659;28;20047;-50
2024/01/06 07:18:23;;;;;;;5.50;5.00;;;15.90;62.80;;;;;;4188735;28;20198;-47
2024/01/06 07:21:06;;;;;;;5.70;5.25;;;15.90;63.50;;;;;;4189722;28;20062;-45
2024/01/06 07:23:47;;;;;;;5.13;4.63;;;15.90;63.50;;;;;;4173314;28;20130;-46
2024/01/06 07:26:28;;;;;;;5.90;4.85;;;16.00;63.30;;;;;;4172855;28;20064;-49
2024/01/06 07:29:10;;;;;;;4.60;4.20;;;16.00;64.30;;;;;;4182874;28;20066;-47
2024/01/06 07:31:51;;;;;;;5.05;4.57;;;16.00;63.00;;;;;;4189477;28;20368;-46
2024/01/06 07:34:32;;;;;;;5.55;5.05;;;16.10;62.20;;;;;;4190075;28;20089;-45
2024/01/06 07:37:13;;;;;;;4.80;4.40;;;16.20;62.50;;;;;;4189666;28;20058;-46
2024/01/06 07:39:54;;;;;;;5.00;4.60;;;16.20;61.70;;;;;;4189828;28;20059;-48
2024/01/06 07:42:35;;;;;;;5.20;4.80;;;16.20;60.00;;;;;;4179817;28;20060;-47
2024/01/06 07:45:18;;;;;;;4.60;4.13;;;16.20;61.60;;;;;;4186687;28;20051;-47
2024/01/06 07:47:59;;;;;;;5.72;4.90;;;16.20;61.20;;;;;;4189020;28;20055;-47
2024/01/06 07:50:40;;;;;;;5.60;5.20;;;16.20;61.80;;;;;;4157415;28;20072;-47
2024/01/06 07:53:21;;;;;;;5.28;4.80;;;16.30;62.10;;;;;;4172537;28;20048;-47
2024/01/06 07:56:02;;;;;;;4.75;4.38;;;16.30;61.60;;;;;;4181794;28;20056;-48
2024/01/06 07:58:44;;;;;;;;;;;16.30;60.50;;;;;;4189348;28;20190;-45
2024/01/06 08:01:26;;;;;;;5.53;5.03;;;16.30;60.90;;;;;;4175322;28;19932;-45
2024/01/06 08:04:07;;;;;;;5.28;4.78;;;16.20;60.90;;;;;;4188939;28;20051;-47
2024/01/06 08:06:48;;;;;;;5.70;5.07;;;16.20;60.70;;;;;;4180419;28;20055;-48
2024/01/06 08:09:30;;;;;;;6.50;5.25;;;16.20;59.60;;;;;;4183194;28;20110;-46
2024/01/06 08:12:11;;;;;;;5.90;5.35;;;16.10;61.20;;;;;;4182547;28;20119;-45
2024/01/06 08:14:52;;;;;;;6.22;5.53;;;16.10;62.20;;;;;;4188988;28;20063;-48
2024/01/06 08:17:35;;;;;;;5.53;5.00;;;16.10;62.90;;;;;;4172214;28;20400;-45
2024/01/06 08:20:15;;;;;;;5.82;5.30;;;16.10;62.10;;;;;;4172267;28;20052;-46
2024/01/06 08:22:57;;;;;;;5.15;4.75;;;16.10;62.40;;;;;;4170218;28;20114;-45
2024/01/06 08:25:38;;;;;;;5.82;5.40;;;16.10;62.60;;;;;;4171874;28;20048;-45
2024/01/06 08:28:19;;;;;;;6.05;5.55;;;16.10;62.50;;;;;;4178364;28;20047;-47
2024/01/06 08:31:00;;;;;;;5.88;5.13;;;16.10;62.50;;;;;;4179421;28;20731;-45
2024/01/06 08:33:43;;;;;;;7.00;6.40;;;16.10;61.90;;;;;;4172314;28;20106;-45
2024/01/06 08:36:25;;;;;;;6.25;5.65;;;16.10;62.10;;;;;;4172019;28;20060;-47
2024/01/06 08:39:06;;;;;;;6.18;5.68;;;16.00;60.60;;;;;;4180176;28;20174;-38
2024/01/06 08:41:47;;;;;;;8.00;6.22;;;16.00;59.30;;;;;;4179912;28;20404;-39
2024/01/06 08:44:28;;;;;;;6.28;5.40;;;15.90;61.50;;;;;;4187619;28;20056;-37
2024/01/06 08:47:09;;;;;;;6.15;5.65;;;15.80;62.40;;;;;;4183988;28;20043;-38
2024/01/06 08:49:52;;;;;;;7.13;6.00;;;15.70;61.70;;;;;;4171453;28;20048;-38
2024/01/06 08:52:33;;;;;;;6.15;5.00;;;15.70;63.20;;;;;;4170921;28;20102;-38
2024/01/06 08:55:14;;;;;;;7.40;6.70;;;15.70;63.70;;;;;;4171086;28;20114;-38
2024/01/06 08:57:55;;;;;;;;;;;15.80;62.00;;;;;;4171515;28;20110;-39
2024/01/06 09:00:36;;;;;;;6.45;5.85;;;15.80;62.50;;;;;;4169657;28;19931;-38
2024/01/06 09:03:17;;;;;;;7.65;5.75;;;15.80;62.80;;;;;;4187059;28;20063;-38
2024/01/06 09:06:00;;;;;;;7.65;6.50;;;15.80;62.80;;;;;;4184399;28;20088;-38
2024/01/06 09:08:41;;;;;;;7.50;6.53;;;15.90;61.60;;;;;;4171287;28;20494;-38
2024/01/06 09:11:22;;;;;;;7.78;5.78;;;15.90;61.90;;;;;;4170595;28;20182;-38
2024/01/06 09:14:03;;;;;;;6.75;6.10;;;15.90;61.40;;;;;;4171348;28;20056;-38
2024/01/06 09:16:44;;;;;;;6.53;5.90;;;15.90;60.90;;;;;;4184272;28;20044;-39
2024/01/06 09:19:28;;;;;;;6.10;5.60;;;15.90;61.90;;;;;;4174658;28;20078;-38
2024/01/06 09:22:10;;;;;;;6.78;6.00;;;16.00;61.90;;;;;;4176438;28;20089;-38
2024/01/06 09:24:52;;;;;;;7.32;6.60;;;16.10;60.10;;;;;;4171792;28;20052;-38
2024/01/06 09:27:33;;;;;;;8.73;6.00;;;16.40;60.40;;;;;;4170899;28;20060;-38
2024/01/06 09:30:15;;;;;;;6.63;6.03;;;16.80;59.30;;;;;;4171627;28;20183;-38
2024/01/06 09:32:56;;;;;;;7.65;6.93;;;17.30;55.70;;;;;;4171146;28;20060;-39
2024/01/06 09:35:37;;;;;;;7.28;6.63;;;17.80;56.70;;;;;;4171128;28;20060;-47
2024/01/06 09:38:19;;;;;;;8.48;6.35;;;18.20;54.40;;;;;;4163650;28;20400;-45
2024/01/06 09:41:00;;;;;;;6.78;6.18;;;18.60;54.30;;;;;;4171260;28;20183;-47
2024/01/06 09:43:41;;;;;;;6.80;6.20;;;19.00;52.70;;;;;;4170249;28;20059;-46
2024/01/06 09:46:26;;;;;;;6.47;5.88;;;19.20;52.30;;;;;;4170399;28;20648;-46
2024/01/06 09:49:08;;;;;;;6.35;5.80;;;19.40;51.10;;;;;;4170561;28;20175;-46
2024/01/06 09:51:51;;;;;;;6.75;6.15;;;19.50;50.80;;;;;;4170469;28;20137;-46
2024/01/06 09:54:35;;;;;;;5.95;5.38;;;19.70;50.90;;;;;;4171891;28;20047;-49
2024/01/06 09:57:16;;;;;;;6.18;5.63;;;19.80;50.60;;;;;;4170743;28;20514;-45
2024/01/06 09:59:58;;;;;;;;;;;19.90;50.40;;;;;;4170528;28;20067;-47
2024/01/06 10:02:43;;;;;;;5.90;5.40;;;19.90;50.90;;;;;;4179569;28;19954;-51
2024/01/06 10:05:24;;;;;;;5.90;5.30;;;19.90;50.10;;;;;;4169702;28;20097;-46
2024/01/06 10:08:05;;;;;;;6.07;5.47;;;19.90;49.80;;;;;;4170699;28;20056;-48
2024/01/06 10:10:48;;;;;;;6.18;5.63;;;19.80;51.40;;;;;;4171629;28;20503;-38
2024/01/06 10:13:29;;;;;;;5.97;5.38;;;19.80;52.20;;;;;;4180925;28;20166;-38
2024/01/06 10:16:11;;;;;;;6.22;5.63;;;19.80;51.90;;;;;;4185741;28;20051;-38
2024/01/06 10:18:53;;;;;;;7.32;6.55;;;19.80;52.20;;;;;;4186822;28;20117;-39
2024/01/06 10:21:34;;;;;;;7.15;6.47;;;19.80;52.60;;;;;;4159432;28;20491;-46
2024/01/06 10:24:15;;;;;;;6.90;6.30;;;19.80;51.10;;;;;;4168279;28;20098;-47
2024/01/06 10:26:58;;;;;;;7.78;7.05;;;19.80;50.50;;;;;;4154060;28;20060;-48
2024/01/06 10:29:39;;;;;;;6.95;6.35;;;19.80;51.80;;;;;;4169082;28;20179;-46
2024/01/06 10:32:20;;;;;;;6.18;5.57;;;19.70;52.30;;;;;;4159235;28;20067;-46
2024/01/06 10:35:03;;;;;;;5.40;4.93;;;19.80;51.50;;;;;;4174782;28;20052;-46
2024/01/06 10:37:45;;;;;;;8.27;6.50;;;19.80;52.30;;;;;;4162360;28;20569;-48
2024/01/06 10:40:26;;;;;;;6.78;6.18;;;19.80;51.00;;;;;;4176036;28;20068;-46
2024/01/06 10:43:10;;;;;;;6.80;6.20;;;19.80;51.80;;;;;;4188983;28;20102;-51
2024/01/06 10:45:52;;;;;;;6.88;6.18;;;19.80;52.20;;;;;;4189774;28;20074;-50
2024/01/06 10:48:35;;;;;;;7.20;6.07;;;19.90;51.40;;;;;;4185565;28;20071;-50
2024/01/06 10:51:16;;;;;;;7.65;5.88;;;19.90;51.90;;;;;;4172492;28;20056;-48
2024/01/06 10:54:01;;;;;;;7.72;6.97;;;19.90;51.60;;;;;;4178730;28;20407;-51
2024/01/06 10:56:44;;;;;;;7.20;6.43;;;19.80;51.70;;;;;;4171640;28;20146;-46
2024/01/06 10:59:29;;;;;;;5.95;5.45;;;19.80;51.50;;;;;;4176511;28;20177;-46
2024/01/06 11:02:13;;;;;;;6.53;5.93;;;19.80;52.00;;;;;;4177141;28;20059;-53
2024/01/06 11:04:54;;;;;;;6.10;5.50;;;19.90;52.70;;;;;;4173156;28;20062;-57
2024/01/06 11:07:36;;;;;;;6.40;5.82;;;19.90;52.40;;;;;;4175535;28;20052;-50
2024/01/06 11:10:19;;;;;;;12.55;8.77;;;20.00;52.10;;;;;;4183274;28;20498;-48
2024/01/06 11:13:13;;;;;;;7.43;6.72;;;20.00;51.40;;;;;;4189262;28;20747;-48
2024/01/06 11:15:56;;;;;;;7.50;6.25;;;20.00;51.80;;;;;;4188895;28;20507;-49
2024/01/06 11:18:38;;;;;;;4.85;4.45;;;20.00;52.10;;;;;;4188873;28;20101;-50
2024/01/06 11:21:25;;;;;;;6.97;6.28;;;19.90;51.30;;;;;;4173646;28;20420;-48
2024/01/06 11:24:16;;;;;;;6.32;5.82;;;19.80;51.00;;;;;;4185834;28;20051;-49
2024/01/06 11:26:58;;;;;;;6.78;6.25;;;19.60;50.70;;;;;;4189751;28;20056;-49
2024/01/06 11:29:39;;;;;;;7.78;6.97;;;19.30;51.20;;;;;;4185062;28;20055;-51
2024/01/06 11:32:27;;;;;;;6.97;6.35;;;19.20;51.40;;;;;;4184285;28;20495;-52
2024/01/06 11:35:10;;;;;;;7.85;6.47;;;19.10;49.70;;;;;;4156171;28;20072;-52
2024/01/06 11:37:54;;;;;;;7.80;6.45;;;19.10;52.40;;;;;;4166444;28;20052;-50
2024/01/06 11:40:37;;;;;;;6.55;5.95;;;19.20;53.00;;;;;;4155722;28;20538;-46
2024/01/06 11:43:22;;;;;;;7.07;6.38;;;19.20;50.20;;;;;;4155131;28;20400;-48
2024/01/06 11:46:03;;;;;;;7.03;6.38;;;19.30;52.20;;;;;;4183190;28;20052;-50
2024/01/06 11:48:50;;;;;;;;;;;19.40;52.70;;;;;;4189075;28;20608;-49
2024/01/06 11:51:31;;;;;;;7.95;7.25;;;19.50;53.10;;;;;;4177729;28;19999;-49
2024/01/06 11:54:13;;;;;;;6.90;6.30;;;19.50;53.20;;;;;;4155715;28;20056;-49
2024/01/06 11:56:55;;;;;;;;;;;19.60;50.60;;;;;;4154666;28;20052;-48
2024/01/06 11:59:37;;;;;;;6.40;5.82;;;19.60;48.90;;;;;;4180986;28;20287;-48
2024/01/06 12:02:19;;;;;;;6.13;5.63;;;19.50;48.30;;;;;;4171833;28;20400;-49
2024/01/06 12:05:01;;;;;;;6.78;6.18;;;19.30;48.40;;;;;;4184341;28;20055;-46
2024/01/06 12:07:43;;;;;;;7.07;6.45;;;19.00;51.40;;;;;;4188457;28;20048;-56
2024/01/06 12:10:25;;;;;;;6.38;5.78;;;18.90;50.00;;;;;;4172038;28;20087;-61
2024/01/06 12:13:08;;;;;;;7.40;6.70;;;18.80;50.50;;;;;;4172374;28;20076;-53
2024/01/06 12:15:51;;;;;;;6.10;5.60;;;18.80;48.70;;;;;;4172985;28;20076;-52
2024/01/06 12:18:33;;;;;;;6.13;5.53;;;18.80;50.30;;;;;;4176198;28;20047;-51
2024/01/06 12:21:16;;;;;;;6.10;5.68;;;18.70;50.60;;;;;;4171906;28;20056;-52
2024/01/06 12:24:20;;;;;;;6.78;5.78;;;18.70;48.10;;;;;;4160921;28;20083;-50
2024/01/06 12:27:01;;;;;;;6.20;5.60;;;18.70;50.50;;;;;;4159002;28;20051;-53
2024/01/06 12:29:42;;;;;;;5.68;5.18;;;18.70;52.00;;;;;;4184571;28;20093;-49
2024/01/06 12:32:25;;;;;;;5.68;5.07;;;18.80;53.10;;;;;;4171866;28;20116;-51
2024/01/06 12:35:07;;;;;;;5.43;4.93;;;18.80;51.80;;;;;;4156645;28;20123;-52
2024/01/06 12:37:49;;;;;;;6.65;6.00;;;18.80;52.80;;;;;;4172179;28;20055;-37
2024/01/06 12:40:30;;;;;;;5.65;5.15;;;18.90;48.90;;;;;;4171726;28;20411;-37
2024/01/06 12:43:11;;;;;;;5.55;5.05;;;18.90;51.20;;;;;;4159116;28;20594;-36
2024/01/06 12:45:52;;;;;;;5.07;4.68;;;18.90;49.70;;;;;;4158253;28;20051;-37
2024/01/06 12:48:33;;;;;;;7.22;6.53;;;18.90;48.50;;;;;;4175499;28;20134;-37
2024/01/06 12:51:15;;;;;;;6.32;5.82;;;18.80;52.10;;;;;;4173131;28;20060;-37
2024/01/06 12:53:57;;;;;;;5.65;5.15;;;18.70;50.60;;;;;;4171302;28;20587;-36
2024/01/06 12:56:38;;;;;;;6.55;6.05;;;18.50;48.30;;;;;;4171437;28;20420;-37
2024/01/06 12:59:19;;;;;;;7.10;6.43;;;18.30;47.90;;;;;;4181198;28;20118;-37
2024/01/06 13:02:00;;;;;;;;;;;18.10;50.60;;;;;;4186849;28;20191;-37
2024/01/06 13:04:41;;;;;;;6.35;5.75;;;18.00;50.90;;;;;;4187578;28;20387;-37
2024/01/06 13:07:22;;;;;;;6.97;6.28;;;18.00;50.30;;;;;;4187118;28;20399;-37
2024/01/06 13:10:06;;;;;;;7.03;6.43;;;18.10;52.00;;;;;;4169716;28;20506;-37
2024/01/06 13:12:47;;;;;;;9.50;7.93;;;18.10;51.30;;;;;;4181309;28;20179;-37
2024/01/06 13:15:30;;;;;;;7.80;6.80;;;18.10;50.20;;;;;;4179902;28;20597;-37
2024/01/06 13:18:12;;;;;;;7.30;6.60;;;18.10;50.90;;;;;;4186153;28;20051;-37
2024/01/06 13:20:54;;;;;;;9.65;7.82;;;18.20;53.00;;;;;;4186429;28;20599;-37
2024/01/06 13:23:34;;;;;;;8.02;7.32;;;18.30;55.50;;;;;;4185822;28;20183;-37
2024/01/06 13:26:17;;;;;;;7.28;6.68;;;18.40;54.20;;;;;;4187863;28;20400;-37
2024/01/06 13:28:58;;;;;;;17.35;13.65;;;18.50;55.30;;;;;;4187295;28;20095;-38
2024/01/06 13:31:39;;;;;;;9.68;8.77;;;18.60;55.50;;;;;;4169398;28;20388;-37
2024/01/06 13:34:20;;;;;;;7.90;7.10;;;18.70;54.30;;;;;;4187651;28;20051;-37
2024/01/06 13:37:01;;;;;;;8.90;8.10;;;18.70;54.20;;;;;;4161965;28;20065;-39
2024/01/06 13:39:42;;;;;;;9.95;8.95;;;18.70;52.20;;;;;;4186617;28;20141;-37
2024/01/06 13:42:25;;;;;;;8.20;7.50;;;18.70;51.30;;;;;;4175392;28;20060;-48
2024/01/06 13:45:07;;;;;;;7.70;7.00;;;18.70;52.00;;;;;;4183933;28;20517;-51
2024/01/06 13:47:48;;;;;;;7.15;6.32;;;18.70;52.70;;;;;;4173953;28;20055;-48
2024/01/06 13:50:29;;;;;;;6.22;5.63;;;18.70;52.40;;;;;;4186909;28;20514;-49
2024/01/06 13:53:11;;;;;;;6.78;5.88;;;18.70;53.90;;;;;;4185241;28;20178;-51
2024/01/06 13:55:52;;;;;;;6.57;5.97;;;18.80;54.00;;;;;;4161285;28;20060;-51
2024/01/06 13:58:35;;;;;;;7.13;6.43;;;18.80;53.50;;;;;;4178178;28;20121;-50
2024/01/06 14:01:19;;;;;;;8.60;6.85;;;18.90;53.70;;;;;;4186992;28;20078;-50
2024/01/06 14:04:00;;;;;;;12.85;11.43;;;18.90;54.30;;;;;;4186640;28;20051;-49